world map with TLE marked

TLE - Airport

This information may not be accurate or current and is not valid for navigation or flight planning. No warranty of fitness for any purpose is made or implied.

flag of Madagascar

Donate via PayPal

Additional information is available on the NEW Great Circle Mapper

Location
City:  Tulear, Madagascar
Near (Alt.):Toliara
ICAO / IATA:FMST / TLE

Details
Type:Airport (Aerodrome, Airfield)
Use:Public/Civil
Latitude:23°23'00"S (-23.383368)
Longitude:43°43'42"E (43.728453)
Datum:WGS 1984
Elevation:29 ft (9 m)
Runways:2
Longest:6562 × 98 ft (2000 × 30 m)

Time
Timezone:UTC+3 (DST+5)
Local Time:

Weather
METAR:FMST  (expired)
TAF:FMST  041100Z 0412/0512 24010KT 9999 FEW020 BECMG 0417/0420 12005KT

Related Locations
Nearby:
Farthest:KNSI: 11215 mi / 18048 km
San Nicolas Island [San Nicolas Island NOLF Airport], CA, US

Find:

   beyond  
but within

Other Information
Maps:
Sources:

  


 


Great Circle Mapper   Great Circle Mapper
Great Circle Mapper FAQ   Great Circle Mapper FAQ
  Karl's Home Page
KLSē   KLSē Home
   GC on Facebook
Airlines of the World   Airlines of the World
Donate via PayPal


Copyright © 2004-2019, Karl L. Swartz. All rights reserved.
All trademarks mentioned herein belong to their respective owners.

Please see credits for attribution and copyright information.

Karl Swartz <karl@kls2.com>
  Powered by FreeBSD
Valid HTML 4.01!
Labeled with ICRA
hCard Microformat
Geo Microformat